sensor_id;sensor_type;location;lat;lon;timestamp;pressure;altitude;pressure_sealevel;temperature;humidity
3590;BME280;1809;48.470;9.226;2023-07-13T00:02:08;65616.81;;;20.23;100.00
3590;BME280;1809;48.470;9.226;2023-07-13T00:04:34;62861.34;;;20.22;100.00
3590;BME280;1809;48.470;9.226;2023-07-13T00:06:59;63885.41;;;20.14;100.00
3590;BME280;1809;48.470;9.226;2023-07-13T00:09:25;53232.34;;;20.17;100.00
3590;BME280;1809;48.470;9.226;2023-07-13T00:11:52;57002.09;;;20.09;100.00
3590;BME280;1809;48.470;9.226;2023-07-13T00:14:18;61470.81;;;20.08;100.00
3590;BME280;1809;48.470;9.226;2023-07-13T00:16:44;69374.28;;;19.92;100.00
3590;BME280;1809;48.470;9.226;2023-07-13T00:19:11;74189.31;;;19.80;100.00
3590;BME280;1809;48.470;9.226;2023-07-13T00:21:37;80736.81;;;19.67;100.00
3590;BME280;1809;48.470;9.226;2023-07-13T00:24:03;81765.53;;;19.61;100.00
3590;BME280;1809;48.470;9.226;2023-07-13T00:26:28;82786.94;;;19.49;100.00
3590;BME280;1809;48.470;9.226;2023-07-13T00:28:54;78293.47;;;19.48;100.00
3590;BME280;1809;48.470;9.226;2023-07-13T00:31:19;75865.63;;;19.39;100.00
3590;BME280;1809;48.470;9.226;2023-07-13T00:33:45;72068.91;;;19.37;100.00
3590;BME280;1809;48.470;9.226;2023-07-13T00:36:10;63117.88;;;19.36;100.00
3590;BME280;1809;48.470;9.226;2023-07-13T00:38:36;58316.44;;;19.44;100.00
3590;BME280;1809;48.470;9.226;2023-07-13T00:41:03;54203.69;;;19.50;100.00
3590;BME280;1809;48.470;9.226;2023-07-13T00:43:29;56258.84;;;19.46;100.00
3590;BME280;1809;48.470;9.226;2023-07-13T00:48:29;82780.19;;;19.44;100.00
3590;BME280;1809;48.470;9.226;2023-07-13T00:50:58;89684.13;;;19.30;100.00
3590;BME280;1809;48.470;9.226;2023-07-13T00:53:26;101826.72;;;19.28;100.00
3590;BME280;1809;48.470;9.226;2023-07-13T00:55:53;109479.22;;;19.26;100.00
3590;BME280;1809;48.470;9.226;2023-07-13T00:58:20;110876.59;;;19.28;100.00
3590;BME280;1809;48.470;9.226;2023-07-13T01:00:46;111580.09;;;19.32;100.00
3590;BME280;1809;48.470;9.226;2023-07-13T01:03:13;111245.19;;;19.40;100.00
3590;BME280;1809;48.470;9.226;2023-07-13T01:05:39;105004.69;;;19.57;100.00
3590;BME280;1809;48.470;9.226;2023-07-13T01:08:04;84527.47;;;19.57;100.00
3590;BME280;1809;48.470;9.226;2023-07-13T01:10:31;73813.72;;;19.54;100.00
3590;BME280;1809;48.470;9.226;2023-07-13T01:13:07;70364.75;;;19.53;100.00
3590;BME280;1809;48.470;9.226;2023-07-13T01:15:44;40858.28;;;19.55;100.00
3590;BME280;1809;48.470;9.226;2023-07-13T01:18:13;20085.00;;;19.59;100.00
3590;BME280;1809;48.470;9.226;2023-07-13T01:20:40;-13277.31;;;19.61;100.00
3590;BME280;1809;48.470;9.226;2023-07-13T01:23:07;-16716.25;;;19.67;100.00
3590;BME280;1809;48.470;9.226;2023-07-13T01:25:34;-16713.75;;;19.58;100.00
3590;BME280;1809;48.470;9.226;2023-07-13T01:28:00;-16713.47;;;19.57;100.00
3590;BME280;1809;48.470;9.226;2023-07-13T01:30:25;34024.59;;;19.40;100.00
3590;BME280;1809;48.470;9.226;2023-07-13T01:32:50;72063.09;;;19.31;100.00
3590;BME280;1809;48.470;9.226;2023-07-13T01:35:16;85858.88;;;19.18;100.00
3590;BME280;1809;48.470;9.226;2023-07-13T01:37:42;95906.53;;;19.18;100.00
3590;BME280;1809;48.470;9.226;2023-07-13T01:40:10;103880.00;;;19.09;100.00
3590;BME280;1809;48.470;9.226;2023-07-13T01:42:36;107368.56;;;19.14;100.00
3590;BME280;1809;48.470;9.226;2023-07-13T01:45:02;110129.25;;;19.00;100.00
3590;BME280;1809;48.470;9.226;2023-07-13T01:47:27;112216.88;;;18.99;100.00
3590;BME280;1809;48.470;9.226;2023-07-13T01:49:54;115333.00;;;18.87;100.00
3590;BME280;1809;48.470;9.226;2023-07-13T01:52:19;117420.28;;;18.84;100.00
3590;BME280;1809;48.470;9.226;2023-07-13T01:54:44;119149.75;;;18.76;100.00
3590;BME280;1809;48.470;9.226;2023-07-13T01:57:09;119826.38;;;18.65;100.00
3590;BME280;1809;48.470;9.226;2023-07-13T01:59:35;120533.41;;;18.69;100.00
3590;BME280;1809;48.470;9.226;2023-07-13T02:02:00;120855.84;;;18.56;100.00
3590;BME280;1809;48.470;9.226;2023-07-13T02:04:25;122222.50;;;18.41;100.00
3590;BME280;1809;48.470;9.226;2023-07-13T02:06:51;124295.69;;;18.30;100.00
3590;BME280;1809;48.470;9.226;2023-07-13T02:09:16;126735.41;;;18.26;100.00
3590;BME280;1809;48.470;9.226;2023-07-13T02:11:41;128799.41;;;18.10;100.00
3590;BME280;1809;48.470;9.226;2023-07-13T02:14:07;130893.59;;;18.08;100.00
3590;BME280;1809;48.470;9.226;2023-07-13T02:16:32;131588.97;;;18.06;100.00
3590;BME280;1809;48.470;9.226;2023-07-13T02:18:58;131586.84;;;18.05;100.00
3590;BME280;1809;48.470;9.226;2023-07-13T02:21:23;131928.06;;;18.01;100.00
3590;BME280;1809;48.470;9.226;2023-07-13T02:23:49;132621.41;;;17.98;100.00
3590;BME280;1809;48.470;9.226;2023-07-13T02:26:15;132259.53;;;17.93;100.00
3590;BME280;1809;48.470;9.226;2023-07-13T02:28:40;131541.47;;;17.84;100.00
3590;BME280;1809;48.470;9.226;2023-07-13T02:31:12;132221.53;;;17.75;100.00
3590;BME280;1809;48.470;9.226;2023-07-13T02:33:37;132905.91;;;17.68;100.00
3590;BME280;1809;48.470;9.226;2023-07-13T02:36:03;133938.97;;;17.60;100.00
3590;BME280;1809;48.470;9.226;2023-07-13T02:38:31;134276.72;;;17.55;100.00
3590;BME280;1809;48.470;9.226;2023-07-13T02:40:59;134259.00;;;17.47;100.00
3590;BME280;1809;48.470;9.226;2023-07-13T02:43:24;134938.78;;;17.38;100.00
3590;BME280;1809;48.470;9.226;2023-07-13T02:45:50;135997.41;;;17.42;100.00
3590;BME280;1809;48.470;9.226;2023-07-13T02:48:16;137378.34;;;17.33;100.00
3590;BME280;1809;48.470;9.226;2023-07-13T02:50:42;138052.44;;;17.22;100.00
3590;BME280;1809;48.470;9.226;2023-07-13T02:53:07;138410.44;;;17.25;100.00
3590;BME280;1809;48.470;9.226;2023-07-13T02:55:32;138039.91;;;17.16;100.00
3590;BME280;1809;48.470;9.226;2023-07-13T02:57:58;138384.28;;;17.13;100.00
3590;BME280;1809;48.470;9.226;2023-07-13T03:00:23;138718.34;;;17.06;100.00
3590;BME280;1809;48.470;9.226;2023-07-13T03:02:49;139755.97;;;17.01;100.00
3590;BME280;1809;48.470;9.226;2023-07-13T03:05:16;140819.19;;;17.06;100.00
3590;BME280;1809;48.470;9.226;2023-07-13T03:07:41;140458.56;;;17.02;100.00
3590;BME280;1809;48.470;9.226;2023-07-13T03:10:08;141145.06;;;16.96;100.00
3590;BME280;1809;48.470;9.226;2023-07-13T03:12:34;141488.31;;;16.93;100.00
3590;BME280;1809;48.470;9.226;2023-07-13T03:14:59;141811.72;;;16.81;100.00
3590;BME280;1809;48.470;9.226;2023-07-13T03:17:25;142850.69;;;16.76;100.00
3590;BME280;1809;48.470;9.226;2023-07-13T03:19:50;143556.03;;;16.78;100.00
3590;BME280;1809;48.470;9.226;2023-07-13T03:22:17;143906.38;;;16.78;100.00
3590;BME280;1809;48.470;9.226;2023-07-13T03:24:42;143899.28;;;16.75;100.00
3590;BME280;1809;48.470;9.226;2023-07-13T03:27:08;144249.66;;;16.75;100.00
3590;BME280;1809;48.470;9.226;2023-07-13T03:29:33;144244.94;;;16.73;100.00
3590;BME280;1809;48.470;9.226;2023-07-13T03:31:58;143896.94;;;16.74;100.00
3590;BME280;1809;48.470;9.226;2023-07-13T03:34:24;143183.31;;;16.69;100.00
3590;BME280;1809;48.470;9.226;2023-07-13T03:36:50;143177.38;;;16.66;100.00
3590;BME280;1809;48.470;9.226;2023-07-13T03:39:15;142469.94;;;16.63;100.00
3590;BME280;1809;48.470;9.226;2023-07-13T03:41:40;141753.38;;;16.56;100.00
3590;BME280;1809;48.470;9.226;2023-07-13T03:44:06;142446.47;;;16.53;100.00
3590;BME280;1809;48.470;9.226;2023-07-13T03:46:32;143507.56;;;16.57;100.00
3590;BME280;1809;48.470;9.226;2023-07-13T03:48:58;143166.81;;;16.61;100.00
3590;BME280;1809;48.470;9.226;2023-07-13T03:51:23;142465.25;;;16.61;100.00
3590;BME280;1809;48.470;9.226;2023-07-13T03:53:49;142119.78;;;16.63;100.00
3590;BME280;1809;48.470;9.226;2023-07-13T03:56:16;141779.03;;;16.67;100.00
3590;BME280;1809;48.470;9.226;2023-07-13T03:58:44;141427.75;;;16.66;100.00
3590;BME280;1809;48.470;9.226;2023-07-13T04:01:10;140735.78;;;16.70;100.00
3590;BME280;1809;48.470;9.226;2023-07-13T04:03:36;138657.91;;;16.80;100.00
3590;BME280;1809;48.470;9.226;2023-07-13T04:06:04;136198.41;;;16.75;100.00
3590;BME280;1809;48.470;9.226;2023-07-13T04:08:33;134454.06;;;16.76;100.00
3590;BME280;1809;48.470;9.226;2023-07-13T04:10:59;134128.94;;;16.87;100.00
3590;BME280;1809;48.470;9.226;2023-07-13T04:13:25;132028.31;;;16.85;100.00
3590;BME280;1809;48.470;9.226;2023-07-13T04:15:51;130636.94;;;16.88;100.00
3590;BME280;1809;48.470;9.226;2023-07-13T04:18:17;129232.19;;;16.84;100.00
3590;BME280;1809;48.470;9.226;2023-07-13T04:20:42;127859.66;;;16.95;100.00
3590;BME280;1809;48.470;9.226;2023-07-13T04:23:08;125427.47;;;16.99;100.00
3590;BME280;1809;48.470;9.226;2023-07-13T04:25:33;124385.66;;;17.01;100.00
3590;BME280;1809;48.470;9.226;2023-07-13T04:27:59;124039.13;;;17.02;100.00
3590;BME280;1809;48.470;9.226;2023-07-13T04:30:24;121259.63;;;17.06;100.00
3590;BME280;1809;48.470;9.226;2023-07-13T04:32:51;120907.38;;;17.04;100.00
3590;BME280;1809;48.470;9.226;2023-07-13T04:35:18;119510.69;;;17.02;100.00
3590;BME280;1809;48.470;9.226;2023-07-13T04:37:45;118128.16;;;17.07;100.00
3590;BME280;1809;48.470;9.226;2023-07-13T04:40:11;118122.34;;;17.04;100.00
3590;BME280;1809;48.470;9.226;2023-07-13T04:42:37;116048.34;;;17.11;100.00
3590;BME280;1809;48.470;9.226;2023-07-13T04:45:05;113963.84;;;17.12;100.00
3590;BME280;1809;48.470;9.226;2023-07-13T04:47:31;110511.03;;;17.25;100.00
3590;BME280;1809;48.470;9.226;2023-07-13T04:49:56;108082.19;;;17.26;100.00
3590;BME280;1809;48.470;9.226;2023-07-13T04:52:23;107056.75;;;17.35;100.00
3590;BME280;1809;48.470;9.226;2023-07-13T04:54:48;104266.88;;;17.26;100.00
3590;BME280;1809;48.470;9.226;2023-07-13T04:57:13;104978.44;;;17.37;100.00
3590;BME280;1809;48.470;9.226;2023-07-13T04:59:39;104664.13;;;17.56;100.00
3590;BME280;1809;48.470;9.226;2023-07-13T05:02:05;102581.38;;;17.55;100.00
3590;BME280;1809;48.470;9.226;2023-07-13T05:04:30;99478.47;;;17.65;100.00
3590;BME280;1809;48.470;9.226;2023-07-13T05:06:55;95677.09;;;17.70;100.00
3590;BME280;1809;48.470;9.226;2023-07-13T05:09:21;93607.06;;;17.74;100.00
3590;BME280;1809;48.470;9.226;2023-07-13T05:11:47;90506.75;;;17.82;100.00
3590;BME280;1809;48.470;9.226;2023-07-13T05:14:12;88097.88;;;17.89;100.00
3590;BME280;1809;48.470;9.226;2023-07-13T05:16:37;80495.28;;;17.81;100.00
3590;BME280;1809;48.470;9.226;2023-07-13T05:19:03;73962.41;;;17.89;100.00
3590;BME280;1809;48.470;9.226;2023-07-13T05:21:28;73287.41;;;18.00;100.00
3590;BME280;1809;48.470;9.226;2023-07-13T05:23:54;72265.94;;;18.09;100.00
3590;BME280;1809;48.470;9.226;2023-07-13T05:26:19;70893.66;;;18.12;100.00
3590;BME280;1809;48.470;9.226;2023-07-13T05:28:46;70570.94;;;18.31;100.00
3590;BME280;1809;48.470;9.226;2023-07-13T05:31:11;65778.22;;;18.49;100.00
3590;BME280;1809;48.470;9.226;2023-07-13T05:33:36;46940.34;;;18.57;100.00
3590;BME280;1809;48.470;9.226;2023-07-13T05:36:02;37732.56;;;18.67;100.00
3590;BME280;1809;48.470;9.226;2023-07-13T05:38:28;29917.88;;;18.99;100.00
3590;BME280;1809;48.470;9.226;2023-07-13T05:40:55;18374.00;;;19.10;100.00
3590;BME280;1809;48.470;9.226;2023-07-13T05:43:21;7543.88;;;19.38;100.00
3590;BME280;1809;48.470;9.226;2023-07-13T05:45:46;-12520.78;;;19.73;100.00
3590;BME280;1809;48.470;9.226;2023-07-13T05:48:11;-16726.19;;;20.03;100.00
3590;BME280;1809;48.470;9.226;2023-07-13T05:50:37;-16725.78;;;20.01;100.00
3590;BME280;1809;48.470;9.226;2023-07-13T05:53:03;-16729.41;;;20.14;100.00
3590;BME280;1809;48.470;9.226;2023-07-13T05:55:28;-16760.84;;;21.28;100.00
3590;BME280;1809;48.470;9.226;2023-07-13T05:57:53;-16778.03;;;21.90;100.00
3590;BME280;1809;48.470;9.226;2023-07-13T06:00:19;-16824.66;;;23.59;100.00
3590;BME280;1809;48.470;9.226;2023-07-13T06:02:45;-16868.44;;;25.17;100.00
3590;BME280;1809;48.470;9.226;2023-07-13T06:05:10;-16909.53;;;26.66;100.00
3590;BME280;1809;48.470;9.226;2023-07-13T06:07:35;-16928.91;;;27.36;100.00
3590;BME280;1809;48.470;9.226;2023-07-13T06:10:01;-16912.75;;;26.78;100.00
3590;BME280;1809;48.470;9.226;2023-07-13T06:12:27;-16903.56;;;26.44;100.00
3590;BME280;1809;48.470;9.226;2023-07-13T06:14:52;-16891.03;;;25.99;100.00
3590;BME280;1809;48.470;9.226;2023-07-13T06:17:17;-16882.66;;;25.69;100.00
3590;BME280;1809;48.470;9.226;2023-07-13T06:19:43;-16867.75;;;25.14;100.00
3590;BME280;1809;48.470;9.226;2023-07-13T06:22:08;-16897.44;;;26.22;100.00
3590;BME280;1809;48.470;9.226;2023-07-13T06:24:34;-16936.97;;;27.65;100.00
3590;BME280;1809;48.470;9.226;2023-07-13T06:26:59;-16946.44;;;28.00;100.00
3590;BME280;1809;48.470;9.226;2023-07-13T06:29:24;-17011.47;;;30.36;100.00
3590;BME280;1809;48.470;9.226;2023-07-13T06:31:50;-17015.94;;;30.52;100.00
3590;BME280;1809;48.470;9.226;2023-07-13T06:34:15;-17012.31;;;30.39;100.00
3590;BME280;1809;48.470;9.226;2023-07-13T06:36:40;-17012.19;;;30.38;100.00
3590;BME280;1809;48.470;9.226;2023-07-13T06:39:06;-17012.59;;;30.40;100.00
3590;BME280;1809;48.470;9.226;2023-07-13T06:41:32;-17033.16;;;31.15;93.94
3590;BME280;1809;48.470;9.226;2023-07-13T06:43:58;-16996.06;;;29.80;100.00
3590;BME280;1809;48.470;9.226;2023-07-13T06:46:24;-17021.22;;;30.71;100.00
3590;BME280;1809;48.470;9.226;2023-07-13T06:48:50;-16984.81;;;29.39;100.00
3590;BME280;1809;48.470;9.226;2023-07-13T06:51:15;-16993.97;;;29.72;100.00
3590;BME280;1809;48.470;9.226;2023-07-13T06:53:40;-17023.00;;;30.78;99.21
3590;BME280;1809;48.470;9.226;2023-07-13T06:56:07;-17046.75;;;31.64;91.14
3590;BME280;1809;48.470;9.226;2023-07-13T06:58:33;-17041.75;;;31.46;89.48
3590;BME280;1809;48.470;9.226;2023-07-13T07:00:59;-16999.00;;;29.91;97.91
3590;BME280;1809;48.470;9.226;2023-07-13T07:03:24;-17043.56;;;31.53;97.47
3590;BME280;1809;48.470;9.226;2023-07-13T07:05:50;-17026.75;;;30.91;96.02
3590;BME280;1809;48.470;9.226;2023-07-13T07:08:15;-17013.84;;;30.45;95.84
3590;BME280;1809;48.470;9.226;2023-07-13T07:10:40;-16994.13;;;29.73;100.00
3590;BME280;1809;48.470;9.226;2023-07-13T07:13:06;-17026.19;;;30.89;95.46
3590;BME280;1809;48.470;9.226;2023-07-13T07:15:31;-17022.59;;;30.76;98.92
3590;BME280;1809;48.470;9.226;2023-07-13T07:17:57;-17019.97;;;30.67;100.00
3590;BME280;1809;48.470;9.226;2023-07-13T07:20:23;-17026.19;;;30.89;96.29
3590;BME280;1809;48.470;9.226;2023-07-13T07:22:48;-17040.63;;;31.42;92.82
3590;BME280;1809;48.470;9.226;2023-07-13T07:25:14;-17033.16;;;31.15;96.26
3590;BME280;1809;48.470;9.226;2023-07-13T07:27:39;-17036.22;;;31.26;97.00
3590;BME280;1809;48.470;9.226;2023-07-13T07:30:05;-17078.50;;;32.80;84.79
3590;BME280;1809;48.470;9.226;2023-07-13T07:32:32;-17052.56;;;31.85;87.15
3590;BME280;1809;48.470;9.226;2023-07-13T07:34:58;-17056.47;;;32.00;85.33
3590;BME280;1809;48.470;9.226;2023-07-13T07:37:23;-17064.91;;;32.30;79.95
3590;BME280;1809;48.470;9.226;2023-07-13T07:39:49;-17032.88;;;31.14;93.38
3590;BME280;1809;48.470;9.226;2023-07-13T07:42:15;-17053.00;;;31.87;81.57
3590;BME280;1809;48.470;9.226;2023-07-13T07:44:41;-17065.91;;;32.34;80.03
3590;BME280;1809;48.470;9.226;2023-07-13T07:47:08;-17035.50;;;31.23;79.69
3590;BME280;1809;48.470;9.226;2023-07-13T07:49:33;-17044.81;;;31.57;77.21
3590;BME280;1809;48.470;9.226;2023-07-13T07:51:59;-17048.41;;;31.70;78.35
3590;BME280;1809;48.470;9.226;2023-07-13T07:54:24;-17029.81;;;31.03;75.03
3590;BME280;1809;48.470;9.226;2023-07-13T07:56:49;-17022.72;;;30.77;78.91
3590;BME280;1809;48.470;9.226;2023-07-13T07:59:15;-17046.75;;;31.64;73.86
3590;BME280;1809;48.470;9.226;2023-07-13T08:01:41;-17049.53;;;31.74;73.83
3590;BME280;1809;48.470;9.226;2023-07-13T08:04:06;-17069.34;;;32.46;69.09
3590;BME280;1809;48.470;9.226;2023-07-13T08:06:32;-17026.19;;;30.89;70.58
3590;BME280;1809;48.470;9.226;2023-07-13T08:08:59;-17008.44;;;30.25;75.77
3590;BME280;1809;48.470;9.226;2023-07-13T08:11:25;-16993.16;;;29.69;78.61
3590;BME280;1809;48.470;9.226;2023-07-13T08:13:50;-16970.63;;;28.88;86.05
3590;BME280;1809;48.470;9.226;2023-07-13T08:16:16;-16977.16;;;29.11;86.01
3590;BME280;1809;48.470;9.226;2023-07-13T08:18:42;-16959.38;;;28.47;90.55
3590;BME280;1809;48.470;9.226;2023-07-13T08:21:08;-16938.91;;;27.72;91.58
3590;BME280;1809;48.470;9.226;2023-07-13T08:23:34;-16920.28;;;27.05;92.66
3590;BME280;1809;48.470;9.226;2023-07-13T08:26:00;-16910.38;;;26.69;100.00
3590;BME280;1809;48.470;9.226;2023-07-13T08:28:29;-16881.00;;;25.62;100.00
3590;BME280;1809;48.470;9.226;2023-07-13T08:31:00;-16866.50;;;25.10;100.00
3590;BME280;1809;48.470;9.226;2023-07-13T08:33:25;-16868.72;;;25.18;100.00
3590;BME280;1809;48.470;9.226;2023-07-13T08:35:51;-16860.66;;;24.89;100.00
3590;BME280;1809;48.470;9.226;2023-07-13T08:38:16;-16857.84;;;24.79;100.00
3590;BME280;1809;48.470;9.226;2023-07-13T08:40:42;-16862.75;;;24.96;100.00
3590;BME280;1809;48.470;9.226;2023-07-13T08:43:20;-16859.53;;;24.85;100.00
3590;BME280;1809;48.470;9.226;2023-07-13T08:46:12;-16864.81;;;25.04;100.00
3590;BME280;1809;48.470;9.226;2023-07-13T08:48:43;-16860.38;;;24.88;100.00
3590;BME280;1809;48.470;9.226;2023-07-13T08:54:11;-16850.03;;;24.50;100.00
3590;BME280;1809;48.470;9.226;2023-07-13T08:56:40;-16855.34;;;24.70;100.00
3590;BME280;1809;48.470;9.226;2023-07-13T08:59:11;-16860.66;;;24.89;100.00
3590;BME280;1809;48.470;9.226;2023-07-13T09:01:58;-16862.31;;;24.95;100.00
3590;BME280;1809;48.470;9.226;2023-07-13T09:04:29;-16850.59;;;24.52;100.00
3590;BME280;1809;48.470;9.226;2023-07-13T09:15:27;-16846.56;;;24.38;100.00
3590;BME280;1809;48.470;9.226;2023-07-13T09:17:58;-16862.88;;;24.97;100.00
3590;BME280;1809;48.470;9.226;2023-07-13T09:20:59;-16858.97;;;24.83;100.00
3590;BME280;1809;48.470;9.226;2023-07-13T09:23:28;-16856.75;;;24.75;100.00
3590;BME280;1809;48.470;9.226;2023-07-13T09:26:04;-16850.47;;;24.52;100.00
3590;BME280;1809;48.470;9.226;2023-07-13T09:28:42;-16842.66;;;24.24;100.00
3590;BME280;1809;48.470;9.226;2023-07-13T09:33:45;-16840.56;;;24.16;100.00
3590;BME280;1809;48.470;9.226;2023-07-13T09:36:20;-16843.06;;;24.25;100.00
3590;BME280;1809;48.470;9.226;2023-07-13T09:41:31;-16857.56;;;24.78;100.00
3590;BME280;1809;48.470;9.226;2023-07-13T09:44:12;-16857.84;;;24.79;100.00
3590;BME280;1809;48.470;9.226;2023-07-13T09:46:59;-16840.28;;;24.15;100.00
3590;BME280;1809;48.470;9.226;2023-07-13T09:49:30;-16836.09;;;24.00;100.00
3590;BME280;1809;48.470;9.226;2023-07-13T09:52:11;-16843.91;;;24.28;100.00
3590;BME280;1809;48.470;9.226;2023-07-13T09:54:37;-16840.84;;;24.17;100.00
3590;BME280;1809;48.470;9.226;2023-07-13T09:57:14;-16850.59;;;24.52;100.00
3590;BME280;1809;48.470;9.226;2023-07-13T09:59:43;-16859.81;;;24.86;100.00
3590;BME280;1809;48.470;9.226;2023-07-13T10:05:03;-16869.44;;;25.21;100.00
3590;BME280;1809;48.470;9.226;2023-07-13T10:07:31;-16867.34;;;25.13;100.00
3590;BME280;1809;48.470;9.226;2023-07-13T10:09:58;-16870.13;;;25.23;100.00
3590;BME280;1809;48.470;9.226;2023-07-13T10:12:27;-16877.09;;;25.48;100.00
3590;BME280;1809;48.470;9.226;2023-07-13T10:14:59;-16885.72;;;25.80;100.00
3590;BME280;1809;48.470;9.226;2023-07-13T10:17:35;-16900.22;;;26.32;100.00
3590;BME280;1809;48.470;9.226;2023-07-13T10:20:03;-16900.22;;;26.32;100.00
3590;BME280;1809;48.470;9.226;2023-07-13T10:22:37;-16909.97;;;26.67;100.00
3590;BME280;1809;48.470;9.226;2023-07-13T10:25:25;-16902.88;;;26.42;100.00
3590;BME280;1809;48.470;9.226;2023-07-13T10:27:53;-16898.00;;;26.24;100.00
3590;BME280;1809;48.470;9.226;2023-07-13T10:30:25;-16895.19;;;26.14;100.00
3590;BME280;1809;48.470;9.226;2023-07-13T10:32:53;-16883.78;;;25.73;100.00
3590;BME280;1809;48.470;9.226;2023-07-13T10:35:20;-16887.41;;;25.86;100.00
3590;BME280;1809;48.470;9.226;2023-07-13T10:37:54;-16895.91;;;26.16;100.00
3590;BME280;1809;48.470;9.226;2023-07-13T10:40:30;-16893.25;;;26.07;100.00
3590;BME280;1809;48.470;9.226;2023-07-13T10:43:01;-16887.25;;;25.85;100.00
3590;BME280;1809;48.470;9.226;2023-07-13T10:45:29;-16892.69;;;26.05;100.00
3590;BME280;1809;48.470;9.226;2023-07-13T10:47:56;-16897.44;;;26.22;100.00
3590;BME280;1809;48.470;9.226;2023-07-13T10:50:24;-16903.28;;;26.43;100.00
3590;BME280;1809;48.470;9.226;2023-07-13T10:52:52;-16903.56;;;26.44;100.00
3590;BME280;1809;48.470;9.226;2023-07-13T10:55:36;-16905.50;;;26.51;100.00
3590;BME280;1809;48.470;9.226;2023-07-13T10:58:12;-16913.03;;;26.79;100.00
3590;BME280;1809;48.470;9.226;2023-07-13T11:00:51;-16918.03;;;26.97;100.00
3590;BME280;1809;48.470;9.226;2023-07-13T11:03:20;-16911.63;;;26.73;100.00
3590;BME280;1809;48.470;9.226;2023-07-13T11:05:49;-16913.88;;;26.82;99.37
3590;BME280;1809;48.470;9.226;2023-07-13T11:08:20;-16919.84;;;27.03;99.13
3590;BME280;1809;48.470;9.226;2023-07-13T11:10:53;-16913.88;;;26.82;99.74
3590;BME280;1809;48.470;9.226;2023-07-13T11:16:57;-16928.06;;;27.33;100.00
3590;BME280;1809;48.470;9.226;2023-07-13T11:21:31;-16920.41;;;27.05;100.00
3590;BME280;1809;48.470;9.226;2023-07-13T11:24:16;-16925.97;;;27.25;95.28
3590;BME280;1809;48.470;9.226;2023-07-13T11:26:50;-16928.63;;;27.35;96.40
3590;BME280;1809;48.470;9.226;2023-07-13T11:29:24;-16933.63;;;27.53;100.00
3590;BME280;1809;48.470;9.226;2023-07-13T11:31:56;-16939.19;;;27.73;97.45
3590;BME280;1809;48.470;9.226;2023-07-13T11:34:42;-16931.41;;;27.45;95.75
3590;BME280;1809;48.470;9.226;2023-07-13T11:37:16;-16933.06;;;27.51;96.25
3590;BME280;1809;48.470;9.226;2023-07-13T11:39:44;-16931.81;;;27.47;96.81
3590;BME280;1809;48.470;9.226;2023-07-13T11:42:13;-16927.50;;;27.31;93.75
3590;BME280;1809;48.470;9.226;2023-07-13T11:44:49;-16936.28;;;27.63;97.28
3590;BME280;1809;48.470;9.226;2023-07-13T11:47:18;-16925.84;;;27.25;93.94
3590;BME280;1809;48.470;9.226;2023-07-13T11:49:48;-16920.69;;;27.06;95.47
3590;BME280;1809;48.470;9.226;2023-07-13T11:52:17;-16918.31;;;26.98;96.51
3590;BME280;1809;48.470;9.226;2023-07-13T11:54:51;-16917.63;;;26.95;92.79
3590;BME280;1809;48.470;9.226;2023-07-13T11:57:29;-16913.59;;;26.81;94.39
3590;BME280;1809;48.470;9.226;2023-07-13T11:59:56;-16922.78;;;27.14;100.00
3590;BME280;1809;48.470;9.226;2023-07-13T12:02:29;-16926.81;;;27.29;89.91
3590;BME280;1809;48.470;9.226;2023-07-13T12:04:57;-16930.28;;;27.41;90.95
3590;BME280;1809;48.470;9.226;2023-07-13T12:07:23;-16939.06;;;27.73;94.17
3590;BME280;1809;48.470;9.226;2023-07-13T12:09:48;-16940.03;;;27.76;93.09
3590;BME280;1809;48.470;9.226;2023-07-13T12:12:20;-16944.63;;;27.93;89.05
3590;BME280;1809;48.470;9.226;2023-07-13T12:14:51;-16948.09;;;28.06;83.61
3590;BME280;1809;48.470;9.226;2023-07-13T12:17:20;-16940.44;;;27.78;84.03
3590;BME280;1809;48.470;9.226;2023-07-13T12:19:47;-16953.81;;;28.26;85.42
3590;BME280;1809;48.470;9.226;2023-07-13T12:22:14;-16964.78;;;28.66;86.74
3590;BME280;1809;48.470;9.226;2023-07-13T12:24:41;-16967.56;;;28.76;86.90
3590;BME280;1809;48.470;9.226;2023-07-13T12:27:34;-16972.31;;;28.94;84.35
3590;BME280;1809;48.470;9.226;2023-07-13T12:30:02;-16968.97;;;28.81;84.72
3590;BME280;1809;48.470;9.226;2023-07-13T12:32:31;-16963.41;;;28.61;81.81
3590;BME280;1809;48.470;9.226;2023-07-13T12:35:07;-16965.63;;;28.69;81.59
3590;BME280;1809;48.470;9.226;2023-07-13T12:37:41;-16947.25;;;28.03;84.45
3590;BME280;1809;48.470;9.226;2023-07-13T12:40:14;-16957.84;;;28.41;88.67
3590;BME280;1809;48.470;9.226;2023-07-13T12:42:40;-16950.88;;;28.16;86.85
3590;BME280;1809;48.470;9.226;2023-07-13T12:45:23;-16945.88;;;27.98;89.17
3590;BME280;1809;48.470;9.226;2023-07-13T12:47:52;-16957.97;;;28.42;89.95
3590;BME280;1809;48.470;9.226;2023-07-13T12:50:21;-16956.03;;;28.35;86.83
3590;BME280;1809;48.470;9.226;2023-07-13T12:52:59;-16959.78;;;28.48;83.42
3590;BME280;1809;48.470;9.226;2023-07-13T12:55:28;-16955.75;;;28.34;78.25
3590;BME280;1809;48.470;9.226;2023-07-13T12:57:58;-16964.78;;;28.66;81.22
3590;BME280;1809;48.470;9.226;2023-07-13T13:00:30;-16956.59;;;28.37;74.41
3590;BME280;1809;48.470;9.226;2023-07-13T13:03:03;-16962.00;;;28.56;83.65
3590;BME280;1809;48.470;9.226;2023-07-13T13:05:31;-16961.19;;;28.53;78.97
3590;BME280;1809;48.470;9.226;2023-07-13T13:07:57;-16968.69;;;28.80;76.27
3590;BME280;1809;48.470;9.226;2023-07-13T13:10:23;-16955.34;;;28.32;77.51
3590;BME280;1809;48.470;9.226;2023-07-13T13:12:48;-16953.09;;;28.24;77.89
3590;BME280;1809;48.470;9.226;2023-07-13T13:15:13;-16961.19;;;28.53;79.73
3590;BME280;1809;48.470;9.226;2023-07-13T13:17:39;-16968.69;;;28.80;74.60
3590;BME280;1809;48.470;9.226;2023-07-13T13:20:15;-16966.19;;;28.71;76.17
3590;BME280;1809;48.470;9.226;2023-07-13T13:22:41;-16963.25;;;28.61;77.42
3590;BME280;1809;48.470;9.226;2023-07-13T13:25:12;-16963.53;;;28.62;72.77
3590;BME280;1809;48.470;9.226;2023-07-13T13:27:40;-16960.34;;;28.50;72.39
3590;BME280;1809;48.470;9.226;2023-07-13T13:30:14;-16950.06;;;28.13;69.68
3590;BME280;1809;48.470;9.226;2023-07-13T13:32:41;-16961.44;;;28.54;72.57
3590;BME280;1809;48.470;9.226;2023-07-13T13:35:18;-16970.91;;;28.89;72.32
3590;BME280;1809;48.470;9.226;2023-07-13T13:37:45;-16968.41;;;28.79;70.23